Huvudsida
METAR-TAF:

METAR-TAF

Flygplatser :

Namibe Airport

Namibe, Angola

latitud: 15-15-40S, longitud: 12-08-50E, höjd: 64 m

Aktuellt väderrapport

Denna rapport gjordes för 1 timme och 59 minuter sedan, klockan 13:00 UTC
Vind 10 kt från sydväst
Temperatur 24°C
Fuktighet 69%
Tryck 1013 hPa
Sikt 10 km eller mer
Få moln på en höjd av 700 ft

METAR: FNMO 161300Z 23010KT 9999 FEW007 24/18 Q1013

Tid: 15:59 (14:59 UTC)

Väderprognos

Denna rapport gjordes för 3 timmar och 59 minuter sedan, klockan 11:00 UTC
Prognos gäller från 16 kl. 12 UTC till 16 kl. 24 UTC
Vind 10 kt från väst
Sikt 10 km eller mer
Inga moln under 1 500 m eller inga cumulonimbus
Blir
från 16 kl. 15 UTC till 16 kl. 18 UTC
Vind 5 kt från väst/sydväst
Temporärt
från 16 kl. 20 UTC till 16 kl. 24 UTC
Vind 10 kt från syd

TAF: FNMO 161100Z 1612/1624 27010KT CAVOK BECMG 1615/1618 25005KT TEMPO 1620/1624 19010KT

Aktuella väderrapporter och prognoser från 4000 flygplatser (METAR- och TAF-rapporter).

De tillgängliga stationerna syns som gula och röda prickar på kartan.

För musen över prickarna för att se namnen på stationerna.

Klicka sedan för att få väderrapporter och prognoser.

För att ändra kartan: Klicka på de gröna knapparna med ett svart kors på för att zooma in; den gröna knappen med ett streck på för att zooma ut; eller på de gröna pilarna för angränsande kartor.


METAR-TAF: